sensor_id;sensor_type;location;lat;lon;timestamp;temperature;humidity
82183;DHT22;71763;52.220;13.000;2024-01-27T00:00:08;4.90;64.20
82183;DHT22;71763;52.220;13.000;2024-01-27T00:02:34;4.90;64.20
82183;DHT22;71763;52.220;13.000;2024-01-27T00:04:59;4.90;64.20
82183;DHT22;71763;52.220;13.000;2024-01-27T00:07:25;5.00;64.10
82183;DHT22;71763;52.220;13.000;2024-01-27T00:09:52;5.00;64.10
82183;DHT22;71763;52.220;13.000;2024-01-27T00:12:17;5.00;64.00
82183;DHT22;71763;52.220;13.000;2024-01-27T00:14:43;5.00;64.10
82183;DHT22;71763;52.220;13.000;2024-01-27T00:17:09;5.10;64.00
82183;DHT22;71763;52.220;13.000;2024-01-27T00:19:35;5.10;64.00
82183;DHT22;71763;52.220;13.000;2024-01-27T00:22:00;5.10;64.00
82183;DHT22;71763;52.220;13.000;2024-01-27T00:24:26;5.10;64.00
82183;DHT22;71763;52.220;13.000;2024-01-27T00:26:51;5.10;63.90
82183;DHT22;71763;52.220;13.000;2024-01-27T00:29:17;5.10;63.90
82183;DHT22;71763;52.220;13.000;2024-01-27T00:31:42;5.10;63.90
82183;DHT22;71763;52.220;13.000;2024-01-27T00:34:07;5.10;64.00
82183;DHT22;71763;52.220;13.000;2024-01-27T00:36:33;5.10;64.00
82183;DHT22;71763;52.220;13.000;2024-01-27T00:39:02;5.00;64.00
82183;DHT22;71763;52.220;13.000;2024-01-27T00:41:28;5.00;64.10
82183;DHT22;71763;52.220;13.000;2024-01-27T00:43:54;5.00;64.10
82183;DHT22;71763;52.220;13.000;2024-01-27T00:46:19;5.00;64.70
82183;DHT22;71763;52.220;13.000;2024-01-27T00:48:44;4.90;64.00
82183;DHT22;71763;52.220;13.000;2024-01-27T00:51:10;5.00;64.10
82183;DHT22;71763;52.220;13.000;2024-01-27T00:53:35;4.90;64.00
82183;DHT22;71763;52.220;13.000;2024-01-27T00:56:01;5.00;64.00
82183;DHT22;71763;52.220;13.000;2024-01-27T00:58:26;5.00;63.90
82183;DHT22;71763;52.220;13.000;2024-01-27T01:00:52;5.10;63.90
82183;DHT22;71763;52.220;13.000;2024-01-27T01:03:17;5.10;63.70
82183;DHT22;71763;52.220;13.000;2024-01-27T01:05:43;5.10;63.50
82183;DHT22;71763;52.220;13.000;2024-01-27T01:08:08;5.10;63.60
82183;DHT22;71763;52.220;13.000;2024-01-27T01:10:34;5.10;63.50
82183;DHT22;71763;52.220;13.000;2024-01-27T01:12:59;5.10;63.50
82183;DHT22;71763;52.220;13.000;2024-01-27T01:15:25;5.20;63.50
82183;DHT22;71763;52.220;13.000;2024-01-27T01:17:50;5.20;63.50
82183;DHT22;71763;52.220;13.000;2024-01-27T01:20:16;5.20;63.40
82183;DHT22;71763;52.220;13.000;2024-01-27T01:22:41;5.20;63.40
82183;DHT22;71763;52.220;13.000;2024-01-27T01:25:07;5.30;63.40
82183;DHT22;71763;52.220;13.000;2024-01-27T01:27:32;5.30;63.30
82183;DHT22;71763;52.220;13.000;2024-01-27T01:29:58;5.30;63.20
82183;DHT22;71763;52.220;13.000;2024-01-27T01:32:23;5.30;63.20
82183;DHT22;71763;52.220;13.000;2024-01-27T01:34:49;5.30;63.10
82183;DHT22;71763;52.220;13.000;2024-01-27T01:37:14;5.30;63.10
82183;DHT22;71763;52.220;13.000;2024-01-27T01:39:40;5.30;63.10
82183;DHT22;71763;52.220;13.000;2024-01-27T01:42:05;5.40;63.20
82183;DHT22;71763;52.220;13.000;2024-01-27T01:44:31;5.30;63.10
82183;DHT22;71763;52.220;13.000;2024-01-27T01:46:59;5.40;63.20
82183;DHT22;71763;52.220;13.000;2024-01-27T01:49:25;5.40;63.20
82183;DHT22;71763;52.220;13.000;2024-01-27T01:51:50;5.40;63.20
82183;DHT22;71763;52.220;13.000;2024-01-27T01:54:16;5.30;63.10
82183;DHT22;71763;52.220;13.000;2024-01-27T01:56:42;5.30;63.10
82183;DHT22;71763;52.220;13.000;2024-01-27T01:59:07;5.30;63.10
82183;DHT22;71763;52.220;13.000;2024-01-27T02:01:33;5.30;63.10
82183;DHT22;71763;52.220;13.000;2024-01-27T02:03:59;5.30;63.10
82183;DHT22;71763;52.220;13.000;2024-01-27T02:06:24;5.30;63.10
82183;DHT22;71763;52.220;13.000;2024-01-27T02:08:50;5.30;63.10
82183;DHT22;71763;52.220;13.000;2024-01-27T02:11:15;5.30;63.20
82183;DHT22;71763;52.220;13.000;2024-01-27T02:13:41;5.30;63.10
82183;DHT22;71763;52.220;13.000;2024-01-27T02:16:07;5.30;63.10
82183;DHT22;71763;52.220;13.000;2024-01-27T02:18:32;5.30;63.10
82183;DHT22;71763;52.220;13.000;2024-01-27T02:20:57;5.20;63.10
82183;DHT22;71763;52.220;13.000;2024-01-27T02:23:23;5.10;63.10
82183;DHT22;71763;52.220;13.000;2024-01-27T02:25:48;5.10;63.10
82183;DHT22;71763;52.220;13.000;2024-01-27T02:28:16;5.00;63.20
82183;DHT22;71763;52.220;13.000;2024-01-27T02:30:41;5.00;63.40
82183;DHT22;71763;52.220;13.000;2024-01-27T02:33:07;5.00;63.50
82183;DHT22;71763;52.220;13.000;2024-01-27T02:35:32;4.90;63.40
82183;DHT22;71763;52.220;13.000;2024-01-27T02:37:58;4.80;63.60
82183;DHT22;71763;52.220;13.000;2024-01-27T02:40:23;4.80;63.60
82183;DHT22;71763;52.220;13.000;2024-01-27T02:42:49;4.70;63.60
82183;DHT22;71763;52.220;13.000;2024-01-27T02:45:14;4.70;63.70
82183;DHT22;71763;52.220;13.000;2024-01-27T02:47:40;4.60;63.70
82183;DHT22;71763;52.220;13.000;2024-01-27T02:50:06;4.60;63.70
82183;DHT22;71763;52.220;13.000;2024-01-27T02:52:32;4.60;63.70
82183;DHT22;71763;52.220;13.000;2024-01-27T02:54:57;4.50;63.60
82183;DHT22;71763;52.220;13.000;2024-01-27T02:57:23;4.50;63.70
82183;DHT22;71763;52.220;13.000;2024-01-27T02:59:48;4.40;63.70
82183;DHT22;71763;52.220;13.000;2024-01-27T03:02:14;4.50;63.70
82183;DHT22;71763;52.220;13.000;2024-01-27T03:04:39;4.40;63.60
82183;DHT22;71763;52.220;13.000;2024-01-27T03:07:04;4.40;63.70
82183;DHT22;71763;52.220;13.000;2024-01-27T03:09:30;4.30;63.70
82183;DHT22;71763;52.220;13.000;2024-01-27T03:11:56;4.30;63.70
82183;DHT22;71763;52.220;13.000;2024-01-27T03:14:21;4.30;63.80
82183;DHT22;71763;52.220;13.000;2024-01-27T03:16:47;4.30;63.70
82183;DHT22;71763;52.220;13.000;2024-01-27T03:19:12;4.20;63.70
82183;DHT22;71763;52.220;13.000;2024-01-27T03:21:38;4.20;63.80
82183;DHT22;71763;52.220;13.000;2024-01-27T03:24:03;4.20;63.80
82183;DHT22;71763;52.220;13.000;2024-01-27T03:26:29;4.20;63.70
82183;DHT22;71763;52.220;13.000;2024-01-27T03:28:54;4.20;63.80
82183;DHT22;71763;52.220;13.000;2024-01-27T03:31:20;4.20;63.80
82183;DHT22;71763;52.220;13.000;2024-01-27T03:33:45;4.10;63.70
82183;DHT22;71763;52.220;13.000;2024-01-27T03:36:11;4.10;63.70
82183;DHT22;71763;52.220;13.000;2024-01-27T03:38:37;4.20;63.70
82183;DHT22;71763;52.220;13.000;2024-01-27T03:41:03;4.10;63.70
82183;DHT22;71763;52.220;13.000;2024-01-27T03:43:28;4.10;63.70
82183;DHT22;71763;52.220;13.000;2024-01-27T03:45:55;4.10;63.80
82183;DHT22;71763;52.220;13.000;2024-01-27T03:48:21;4.10;63.80
82183;DHT22;71763;52.220;13.000;2024-01-27T03:50:46;4.10;63.80
82183;DHT22;71763;52.220;13.000;2024-01-27T03:53:12;4.10;63.80
82183;DHT22;71763;52.220;13.000;2024-01-27T03:55:39;4.10;63.80
82183;DHT22;71763;52.220;13.000;2024-01-27T03:58:05;4.10;63.80
82183;DHT22;71763;52.220;13.000;2024-01-27T04:00:31;4.10;63.60
82183;DHT22;71763;52.220;13.000;2024-01-27T04:02:58;4.20;63.70
82183;DHT22;71763;52.220;13.000;2024-01-27T04:05:24;4.10;63.50
82183;DHT22;71763;52.220;13.000;2024-01-27T04:07:49;4.10;63.60
82183;DHT22;71763;52.220;13.000;2024-01-27T04:10:16;4.10;63.60
82183;DHT22;71763;52.220;13.000;2024-01-27T04:12:43;4.10;63.60
82183;DHT22;71763;52.220;13.000;2024-01-27T04:15:09;4.10;63.60
82183;DHT22;71763;52.220;13.000;2024-01-27T04:17:35;4.10;63.60
82183;DHT22;71763;52.220;13.000;2024-01-27T04:20:00;4.10;63.60
82183;DHT22;71763;52.220;13.000;2024-01-27T04:22:26;4.10;63.80
82183;DHT22;71763;52.220;13.000;2024-01-27T04:24:51;4.10;63.80
82183;DHT22;71763;52.220;13.000;2024-01-27T04:27:17;4.10;63.80
82183;DHT22;71763;52.220;13.000;2024-01-27T04:29:42;4.10;63.70
82183;DHT22;71763;52.220;13.000;2024-01-27T04:32:08;4.10;63.60
82183;DHT22;71763;52.220;13.000;2024-01-27T04:34:33;4.10;63.70
82183;DHT22;71763;52.220;13.000;2024-01-27T04:36:58;4.10;63.70
82183;DHT22;71763;52.220;13.000;2024-01-27T04:39:24;4.00;63.80
82183;DHT22;71763;52.220;13.000;2024-01-27T04:41:49;4.00;63.70
82183;DHT22;71763;52.220;13.000;2024-01-27T04:44:15;4.10;63.80
82183;DHT22;71763;52.220;13.000;2024-01-27T04:46:40;4.10;63.90
82183;DHT22;71763;52.220;13.000;2024-01-27T04:49:06;4.00;63.80
82183;DHT22;71763;52.220;13.000;2024-01-27T04:51:31;4.00;63.90
82183;DHT22;71763;52.220;13.000;2024-01-27T04:53:57;4.00;64.20
82183;DHT22;71763;52.220;13.000;2024-01-27T04:56:22;4.00;64.00
82183;DHT22;71763;52.220;13.000;2024-01-27T04:58:48;4.00;64.00
82183;DHT22;71763;52.220;13.000;2024-01-27T05:01:13;4.00;63.90
82183;DHT22;71763;52.220;13.000;2024-01-27T05:03:38;4.00;63.80
82183;DHT22;71763;52.220;13.000;2024-01-27T05:06:07;4.00;63.90
82183;DHT22;71763;52.220;13.000;2024-01-27T05:08:32;4.00;63.80
82183;DHT22;71763;52.220;13.000;2024-01-27T05:11:00;4.00;63.80
82183;DHT22;71763;52.220;13.000;2024-01-27T05:13:25;4.00;63.90
82183;DHT22;71763;52.220;13.000;2024-01-27T05:15:51;4.00;64.60
82183;DHT22;71763;52.220;13.000;2024-01-27T05:18:16;3.90;64.00
82183;DHT22;71763;52.220;13.000;2024-01-27T05:20:42;3.90;64.00
82183;DHT22;71763;52.220;13.000;2024-01-27T05:23:07;3.90;64.10
82183;DHT22;71763;52.220;13.000;2024-01-27T05:25:33;3.90;64.20
82183;DHT22;71763;52.220;13.000;2024-01-27T05:27:58;3.90;64.10
82183;DHT22;71763;52.220;13.000;2024-01-27T05:30:24;4.00;64.10
82183;DHT22;71763;52.220;13.000;2024-01-27T05:32:49;3.90;64.00
82183;DHT22;71763;52.220;13.000;2024-01-27T05:35:14;3.90;64.00
82183;DHT22;71763;52.220;13.000;2024-01-27T05:37:40;3.90;64.10
82183;DHT22;71763;52.220;13.000;2024-01-27T05:40:06;4.00;64.00
82183;DHT22;71763;52.220;13.000;2024-01-27T05:42:32;4.10;63.90
82183;DHT22;71763;52.220;13.000;2024-01-27T05:44:58;4.10;63.80
82183;DHT22;71763;52.220;13.000;2024-01-27T05:47:23;4.10;63.70
82183;DHT22;71763;52.220;13.000;2024-01-27T05:49:49;4.20;63.80
82183;DHT22;71763;52.220;13.000;2024-01-27T05:52:14;4.20;63.70
82183;DHT22;71763;52.220;13.000;2024-01-27T05:54:40;4.30;63.70
82183;DHT22;71763;52.220;13.000;2024-01-27T05:57:06;4.30;63.50
82183;DHT22;71763;52.220;13.000;2024-01-27T05:59:32;4.40;63.50
82183;DHT22;71763;52.220;13.000;2024-01-27T06:01:58;4.40;63.40
82183;DHT22;71763;52.220;13.000;2024-01-27T06:04:23;4.50;63.20
82183;DHT22;71763;52.220;13.000;2024-01-27T06:06:49;4.50;63.10
82183;DHT22;71763;52.220;13.000;2024-01-27T06:09:14;4.60;63.00
82183;DHT22;71763;52.220;13.000;2024-01-27T06:11:39;4.70;63.00
82183;DHT22;71763;52.220;13.000;2024-01-27T06:14:05;4.70;63.00
82183;DHT22;71763;52.220;13.000;2024-01-27T06:16:31;4.70;63.00
82183;DHT22;71763;52.220;13.000;2024-01-27T06:18:57;4.70;63.00
82183;DHT22;71763;52.220;13.000;2024-01-27T06:21:22;4.80;63.10
82183;DHT22;71763;52.220;13.000;2024-01-27T06:23:48;4.80;63.10
82183;DHT22;71763;52.220;13.000;2024-01-27T06:26:14;4.80;63.10
82183;DHT22;71763;52.220;13.000;2024-01-27T06:28:40;4.80;63.20
82183;DHT22;71763;52.220;13.000;2024-01-27T06:31:05;4.80;63.20
82183;DHT22;71763;52.220;13.000;2024-01-27T06:33:34;4.80;63.10
82183;DHT22;71763;52.220;13.000;2024-01-27T06:36:00;4.90;63.20
82183;DHT22;71763;52.220;13.000;2024-01-27T06:38:26;4.90;63.10
82183;DHT22;71763;52.220;13.000;2024-01-27T06:40:52;4.90;63.20
82183;DHT22;71763;52.220;13.000;2024-01-27T06:43:17;4.90;63.10
82183;DHT22;71763;52.220;13.000;2024-01-27T06:45:43;5.10;63.20
82183;DHT22;71763;52.220;13.000;2024-01-27T06:48:08;5.00;63.20
82183;DHT22;71763;52.220;13.000;2024-01-27T06:50:34;5.00;63.20
82183;DHT22;71763;52.220;13.000;2024-01-27T06:52:59;5.00;63.10
82183;DHT22;71763;52.220;13.000;2024-01-27T06:55:25;5.00;63.20
82183;DHT22;71763;52.220;13.000;2024-01-27T06:57:50;5.00;63.10
82183;DHT22;71763;52.220;13.000;2024-01-27T07:03:19;5.10;63.20
82183;DHT22;71763;52.220;13.000;2024-01-27T07:08:32;5.10;63.20
82183;DHT22;71763;52.220;13.000;2024-01-27T07:10:58;5.10;63.30
82183;DHT22;71763;52.220;13.000;2024-01-27T07:13:23;5.00;63.30
82183;DHT22;71763;52.220;13.000;2024-01-27T07:15:48;5.10;63.40
82183;DHT22;71763;52.220;13.000;2024-01-27T07:18:14;5.10;64.10
82183;DHT22;71763;52.220;13.000;2024-01-27T07:20:40;5.10;63.40
82183;DHT22;71763;52.220;13.000;2024-01-27T07:23:06;5.10;63.40
82183;DHT22;71763;52.220;13.000;2024-01-27T07:25:31;5.10;63.20
82183;DHT22;71763;52.220;13.000;2024-01-27T07:27:57;5.20;63.40
82183;DHT22;71763;52.220;13.000;2024-01-27T07:30:22;5.20;63.30
82183;DHT22;71763;52.220;13.000;2024-01-27T07:32:48;5.20;63.20
82183;DHT22;71763;52.220;13.000;2024-01-27T07:35:13;5.20;63.10
82183;DHT22;71763;52.220;13.000;2024-01-27T07:37:42;5.30;63.20
82183;DHT22;71763;52.220;13.000;2024-01-27T07:40:09;5.30;63.20
82183;DHT22;71763;52.220;13.000;2024-01-27T07:42:37;5.30;63.10
82183;DHT22;71763;52.220;13.000;2024-01-27T07:45:02;5.40;63.90
82183;DHT22;71763;52.220;13.000;2024-01-27T07:47:28;5.40;63.20
82183;DHT22;71763;52.220;13.000;2024-01-27T07:49:53;5.40;63.20
82183;DHT22;71763;52.220;13.000;2024-01-27T07:52:19;5.50;63.20
82183;DHT22;71763;52.220;13.000;2024-01-27T07:54:45;5.50;63.10
82183;DHT22;71763;52.220;13.000;2024-01-27T07:57:10;5.50;63.10
82183;DHT22;71763;52.220;13.000;2024-01-27T07:59:40;5.50;63.10
82183;DHT22;71763;52.220;13.000;2024-01-27T08:02:05;5.50;63.00
82183;DHT22;71763;52.220;13.000;2024-01-27T08:04:31;5.60;63.10
82183;DHT22;71763;52.220;13.000;2024-01-27T08:06:56;5.60;63.80
82183;DHT22;71763;52.220;13.000;2024-01-27T08:09:22;5.60;63.10
82183;DHT22;71763;52.220;13.000;2024-01-27T08:11:49;5.60;63.10
82183;DHT22;71763;52.220;13.000;2024-01-27T08:14:17;5.60;63.10
82183;DHT22;71763;52.220;13.000;2024-01-27T08:16:43;5.70;63.10
82183;DHT22;71763;52.220;13.000;2024-01-27T08:19:08;5.70;63.20
82183;DHT22;71763;52.220;13.000;2024-01-27T08:21:34;5.70;63.10
82183;DHT22;71763;52.220;13.000;2024-01-27T08:23:59;5.80;63.20
82183;DHT22;71763;52.220;13.000;2024-01-27T08:26:25;5.80;63.00
82183;DHT22;71763;52.220;13.000;2024-01-27T08:28:51;5.90;63.10
82183;DHT22;71763;52.220;13.000;2024-01-27T08:31:17;6.00;63.00
82183;DHT22;71763;52.220;13.000;2024-01-27T08:33:42;6.00;62.70
82183;DHT22;71763;52.220;13.000;2024-01-27T08:36:08;6.10;62.70
82183;DHT22;71763;52.220;13.000;2024-01-27T08:38:38;6.10;62.60
82183;DHT22;71763;52.220;13.000;2024-01-27T08:41:03;6.20;62.60
82183;DHT22;71763;52.220;13.000;2024-01-27T08:43:29;6.20;62.50
82183;DHT22;71763;52.220;13.000;2024-01-27T08:45:55;6.30;62.50
82183;DHT22;71763;52.220;13.000;2024-01-27T08:48:22;6.40;62.30
82183;DHT22;71763;52.220;13.000;2024-01-27T08:50:47;6.40;62.30
82183;DHT22;71763;52.220;13.000;2024-01-27T08:53:13;6.40;62.30
82183;DHT22;71763;52.220;13.000;2024-01-27T08:55:38;6.40;62.30
82183;DHT22;71763;52.220;13.000;2024-01-27T08:58:04;6.50;62.30
82183;DHT22;71763;52.220;13.000;2024-01-27T09:00:30;6.50;62.20
82183;DHT22;71763;52.220;13.000;2024-01-27T09:02:58;6.50;62.30
82183;DHT22;71763;52.220;13.000;2024-01-27T09:05:24;6.50;62.30
82183;DHT22;71763;52.220;13.000;2024-01-27T09:07:49;6.50;62.40
82183;DHT22;71763;52.220;13.000;2024-01-27T09:10:15;6.50;62.50
82183;DHT22;71763;52.220;13.000;2024-01-27T09:12:43;6.50;62.50
82183;DHT22;71763;52.220;13.000;2024-01-27T09:15:09;6.50;62.50
82183;DHT22;71763;52.220;13.000;2024-01-27T09:17:35;6.60;62.70
82183;DHT22;71763;52.220;13.000;2024-01-27T09:20:01;6.60;62.60
82183;DHT22;71763;52.220;13.000;2024-01-27T09:22:26;6.60;62.60
82183;DHT22;71763;52.220;13.000;2024-01-27T09:24:52;6.70;62.60
82183;DHT22;71763;52.220;13.000;2024-01-27T09:27:18;6.70;62.50
82183;DHT22;71763;52.220;13.000;2024-01-27T09:29:43;6.80;62.60
82183;DHT22;71763;52.220;13.000;2024-01-27T09:32:09;6.80;62.40
82183;DHT22;71763;52.220;13.000;2024-01-27T09:34:35;6.90;62.50
82183;DHT22;71763;52.220;13.000;2024-01-27T09:37:00;6.90;62.50
82183;DHT22;71763;52.220;13.000;2024-01-27T09:39:26;6.90;62.50
82183;DHT22;71763;52.220;13.000;2024-01-27T09:41:52;6.90;62.40
82183;DHT22;71763;52.220;13.000;2024-01-27T09:44:28;6.90;62.30
82183;DHT22;71763;52.220;13.000;2024-01-27T09:46:54;7.00;62.40
82183;DHT22;71763;52.220;13.000;2024-01-27T09:49:20;7.00;62.30
82183;DHT22;71763;52.220;13.000;2024-01-27T09:51:45;7.10;62.20
82183;DHT22;71763;52.220;13.000;2024-01-27T09:54:11;7.20;62.10
82183;DHT22;71763;52.220;13.000;2024-01-27T09:56:36;7.20;61.90
82183;DHT22;71763;52.220;13.000;2024-01-27T09:59:02;7.40;61.80
82183;DHT22;71763;52.220;13.000;2024-01-27T10:04:33;7.70;61.90
82183;DHT22;71763;52.220;13.000;2024-01-27T12:03:08;10.40;57.80
82183;DHT22;71763;52.220;13.000;2024-01-27T12:05:34;10.30;57.70
82183;DHT22;71763;52.220;13.000;2024-01-27T12:08:00;10.10;58.40
82183;DHT22;71763;52.220;13.000;2024-01-27T12:10:25;10.10;58.60
82183;DHT22;71763;52.220;13.000;2024-01-27T12:12:51;10.20;58.60
82183;DHT22;71763;52.220;13.000;2024-01-27T12:15:16;10.30;58.40
82183;DHT22;71763;52.220;13.000;2024-01-27T12:17:49;10.50;57.90
82183;DHT22;71763;52.220;13.000;2024-01-27T12:20:15;10.50;57.90
82183;DHT22;71763;52.220;13.000;2024-01-27T12:22:41;10.60;58.00
82183;DHT22;71763;52.220;13.000;2024-01-27T12:25:08;10.70;58.00
82183;DHT22;71763;52.220;13.000;2024-01-27T12:27:41;10.80;58.10
82183;DHT22;71763;52.220;13.000;2024-01-27T12:30:07;10.70;58.10
82183;DHT22;71763;52.220;13.000;2024-01-27T12:32:33;10.70;58.00
82183;DHT22;71763;52.220;13.000;2024-01-27T12:34:59;10.60;58.00
82183;DHT22;71763;52.220;13.000;2024-01-27T12:37:29;10.40;57.80
82183;DHT22;71763;52.220;13.000;2024-01-27T12:39:55;10.20;58.30
82183;DHT22;71763;52.220;13.000;2024-01-27T12:42:20;10.00;58.80
82183;DHT22;71763;52.220;13.000;2024-01-27T12:44:46;9.80;60.00
82183;DHT22;71763;52.220;13.000;2024-01-27T12:47:12;9.70;60.30
82183;DHT22;71763;52.220;13.000;2024-01-27T12:49:39;9.50;60.50
82183;DHT22;71763;52.220;13.000;2024-01-27T12:52:07;9.30;60.70
82183;DHT22;71763;52.220;13.000;2024-01-27T12:54:35;9.20;61.00
82183;DHT22;71763;52.220;13.000;2024-01-27T12:57:03;9.10;61.10
82183;DHT22;71763;52.220;13.000;2024-01-27T12:59:33;9.00;61.20
82183;DHT22;71763;52.220;13.000;2024-01-27T13:01:59;8.90;61.20
82183;DHT22;71763;52.220;13.000;2024-01-27T13:04:34;8.90;61.30
82183;DHT22;71763;52.220;13.000;2024-01-27T13:07:00;8.80;61.20
82183;DHT22;71763;52.220;13.000;2024-01-27T13:09:25;8.70;61.20
82183;DHT22;71763;52.220;13.000;2024-01-27T13:11:56;8.70;61.30
82183;DHT22;71763;52.220;13.000;2024-01-27T13:14:22;8.60;61.20
82183;DHT22;71763;52.220;13.000;2024-01-27T13:16:50;8.60;61.30
82183;DHT22;71763;52.220;13.000;2024-01-27T13:19:19;8.60;61.30
82183;DHT22;71763;52.220;13.000;2024-01-27T13:21:44;8.50;61.20
82183;DHT22;71763;52.220;13.000;2024-01-27T13:24:22;8.50;61.20
82183;DHT22;71763;52.220;13.000;2024-01-27T13:26:52;8.50;61.30
82183;DHT22;71763;52.220;13.000;2024-01-27T13:29:18;8.40;61.10
82183;DHT22;71763;52.220;13.000;2024-01-27T13:31:43;8.40;61.20
82183;DHT22;71763;52.220;13.000;2024-01-27T13:34:09;8.30;61.20
82183;DHT22;71763;52.220;13.000;2024-01-27T13:36:35;8.20;61.20
82183;DHT22;71763;52.220;13.000;2024-01-27T13:39:00;8.20;61.40
82183;DHT22;71763;52.220;13.000;2024-01-27T13:41:26;8.10;61.50
82183;DHT22;71763;52.220;13.000;2024-01-27T13:43:54;8.00;61.50
82183;DHT22;71763;52.220;13.000;2024-01-27T13:46:20;8.00;61.60
82183;DHT22;71763;52.220;13.000;2024-01-27T13:48:46;8.00;61.80
82183;DHT22;71763;52.220;13.000;2024-01-27T13:51:12;7.90;61.70
82183;DHT22;71763;52.220;13.000;2024-01-27T13:53:40;7.90;61.80
82183;DHT22;71763;52.220;13.000;2024-01-27T13:56:18;7.80;61.70
82183;DHT22;71763;52.220;13.000;2024-01-27T13:58:51;7.80;61.70
82183;DHT22;71763;52.220;13.000;2024-01-27T14:01:16;7.80;61.70
82183;DHT22;71763;52.220;13.000;2024-01-27T14:03:45;7.80;61.60
82183;DHT22;71763;52.220;13.000;2024-01-27T14:06:13;7.80;61.70
82183;DHT22;71763;52.220;13.000;2024-01-27T14:08:39;7.80;61.50
82183;DHT22;71763;52.220;13.000;2024-01-27T14:11:10;7.80;61.50
82183;DHT22;71763;52.220;13.000;2024-01-27T14:13:38;7.80;61.50
82183;DHT22;71763;52.220;13.000;2024-01-27T14:16:04;7.80;61.30
82183;DHT22;71763;52.220;13.000;2024-01-27T14:18:33;7.80;61.10
82183;DHT22;71763;52.220;13.000;2024-01-27T14:21:04;7.80;61.30
82183;DHT22;71763;52.220;13.000;2024-01-27T14:23:30;7.80;61.30
82183;DHT22;71763;52.220;13.000;2024-01-27T14:25:56;7.80;61.20
82183;DHT22;71763;52.220;13.000;2024-01-27T14:28:22;7.80;61.00
82183;DHT22;71763;52.220;13.000;2024-01-27T14:30:48;7.80;61.10
82183;DHT22;71763;52.220;13.000;2024-01-27T14:33:14;7.80;60.90
82183;DHT22;71763;52.220;13.000;2024-01-27T14:35:45;7.80;61.00
82183;DHT22;71763;52.220;13.000;2024-01-27T14:38:11;7.80;61.10
82183;DHT22;71763;52.220;13.000;2024-01-27T14:40:38;7.80;61.10
82183;DHT22;71763;52.220;13.000;2024-01-27T14:43:04;7.80;61.10
82183;DHT22;71763;52.220;13.000;2024-01-27T14:45:33;7.80;61.20
82183;DHT22;71763;52.220;13.000;2024-01-27T14:48:00;7.80;61.30
82183;DHT22;71763;52.220;13.000;2024-01-27T14:50:28;7.70;61.30
82183;DHT22;71763;52.220;13.000;2024-01-27T14:52:59;7.70;61.10
82183;DHT22;71763;52.220;13.000;2024-01-27T14:55:27;7.70;61.30
82183;DHT22;71763;52.220;13.000;2024-01-27T14:57:53;7.70;61.30
82183;DHT22;71763;52.220;13.000;2024-01-27T15:00:21;7.70;61.20
82183;DHT22;71763;52.220;13.000;2024-01-27T15:02:53;7.60;61.30
82183;DHT22;71763;52.220;13.000;2024-01-27T15:05:18;7.60;61.40
82183;DHT22;71763;52.220;13.000;2024-01-27T15:07:44;7.50;61.40
82183;DHT22;71763;52.220;13.000;2024-01-27T15:10:10;7.40;61.40
82183;DHT22;71763;52.220;13.000;2024-01-27T15:12:37;7.40;61.60
82183;DHT22;71763;52.220;13.000;2024-01-27T15:15:05;7.30;61.60
82183;DHT22;71763;52.220;13.000;2024-01-27T15:17:33;7.20;61.70
82183;DHT22;71763;52.220;13.000;2024-01-27T15:19:59;7.20;61.90
82183;DHT22;71763;52.220;13.000;2024-01-27T15:22:28;7.10;61.90
82183;DHT22;71763;52.220;13.000;2024-01-27T15:24:53;7.10;62.00
82183;DHT22;71763;52.220;13.000;2024-01-27T15:27:19;7.00;62.00
82183;DHT22;71763;52.220;13.000;2024-01-27T15:29:51;7.00;62.10
82183;DHT22;71763;52.220;13.000;2024-01-27T15:32:17;6.90;62.10
82183;DHT22;71763;52.220;13.000;2024-01-27T15:34:46;6.80;62.10
82183;DHT22;71763;52.220;13.000;2024-01-27T15:37:12;6.80;62.10
82183;DHT22;71763;52.220;13.000;2024-01-27T15:39:37;6.70;62.20
82183;DHT22;71763;52.220;13.000;2024-01-27T15:42:03;6.60;62.20
82183;DHT22;71763;52.220;13.000;2024-01-27T15:44:29;6.50;62.30
82183;DHT22;71763;52.220;13.000;2024-01-27T15:46:57;6.40;62.30
82183;DHT22;71763;52.220;13.000;2024-01-27T15:49:24;6.40;62.60
82183;DHT22;71763;52.220;13.000;2024-01-27T15:51:50;6.30;62.50
82183;DHT22;71763;52.220;13.000;2024-01-27T15:54:16;6.30;62.50
82183;DHT22;71763;52.220;13.000;2024-01-27T15:56:43;6.30;62.60
82183;DHT22;71763;52.220;13.000;2024-01-27T15:59:09;6.20;62.50
82183;DHT22;71763;52.220;13.000;2024-01-27T16:01:34;6.20;62.50
82183;DHT22;71763;52.220;13.000;2024-01-27T16:04:00;6.10;62.40
82183;DHT22;71763;52.220;13.000;2024-01-27T16:06:26;6.10;62.50
82183;DHT22;71763;52.220;13.000;2024-01-27T16:08:52;6.00;62.60
82183;DHT22;71763;52.220;13.000;2024-01-27T16:11:17;5.90;62.50
82183;DHT22;71763;52.220;13.000;2024-01-27T16:13:43;5.80;62.50
82183;DHT22;71763;52.220;13.000;2024-01-27T16:16:09;5.80;62.70
82183;DHT22;71763;52.220;13.000;2024-01-27T16:18:40;5.70;62.80
82183;DHT22;71763;52.220;13.000;2024-01-27T16:21:06;5.60;62.90
82183;DHT22;71763;52.220;13.000;2024-01-27T16:23:32;5.50;62.90
82183;DHT22;71763;52.220;13.000;2024-01-27T16:25:58;5.50;62.90
82183;DHT22;71763;52.220;13.000;2024-01-27T16:28:26;5.40;63.00
82183;DHT22;71763;52.220;13.000;2024-01-27T16:30:53;5.30;62.90
82183;DHT22;71763;52.220;13.000;2024-01-27T16:33:19;5.30;63.10
82183;DHT22;71763;52.220;13.000;2024-01-27T16:35:45;5.20;63.10
82183;DHT22;71763;52.220;13.000;2024-01-27T16:38:10;5.20;63.20
82183;DHT22;71763;52.220;13.000;2024-01-27T16:40:36;5.10;63.10
82183;DHT22;71763;52.220;13.000;2024-01-27T16:43:02;5.10;63.10
82183;DHT22;71763;52.220;13.000;2024-01-27T16:45:28;5.00;63.10
82183;DHT22;71763;52.220;13.000;2024-01-27T16:48:01;5.00;63.10
82183;DHT22;71763;52.220;13.000;2024-01-27T16:50:29;4.90;62.90
82183;DHT22;71763;52.220;13.000;2024-01-27T16:52:54;4.90;63.00
82183;DHT22;71763;52.220;13.000;2024-01-27T16:55:20;4.90;63.00
82183;DHT22;71763;52.220;13.000;2024-01-27T16:57:46;4.80;63.00
82183;DHT22;71763;52.220;13.000;2024-01-27T17:00:21;4.80;63.10
82183;DHT22;71763;52.220;13.000;2024-01-27T17:02:48;4.70;63.00
82183;DHT22;71763;52.220;13.000;2024-01-27T17:05:14;4.70;63.00
82183;DHT22;71763;52.220;13.000;2024-01-27T17:07:39;4.70;63.00
82183;DHT22;71763;52.220;13.000;2024-01-27T17:10:08;4.70;63.00
82183;DHT22;71763;52.220;13.000;2024-01-27T17:12:33;4.70;63.00
82183;DHT22;71763;52.220;13.000;2024-01-27T17:15:00;4.70;62.80
82183;DHT22;71763;52.220;13.000;2024-01-27T17:17:26;4.70;62.80
82183;DHT22;71763;52.220;13.000;2024-01-27T17:19:51;4.60;62.60
82183;DHT22;71763;52.220;13.000;2024-01-27T17:22:17;4.60;62.60
82183;DHT22;71763;52.220;13.000;2024-01-27T17:24:42;4.50;62.50
82183;DHT22;71763;52.220;13.000;2024-01-27T17:27:08;4.60;62.70